sensor_id;sensor_type;location;lat;lon;timestamp;temperature;humidity
3262;DHT22;1643;47.746;9.000;2023-08-17T00:01:55;23.80;99.90
3262;DHT22;1643;47.746;9.000;2023-08-17T00:04:21;23.70;99.90
3262;DHT22;1643;47.746;9.000;2023-08-17T00:06:47;23.70;99.90
3262;DHT22;1643;47.746;9.000;2023-08-17T00:09:13;23.70;99.90
3262;DHT22;1643;47.746;9.000;2023-08-17T00:11:38;23.70;99.90
3262;DHT22;1643;47.746;9.000;2023-08-17T00:14:04;23.60;99.90
3262;DHT22;1643;47.746;9.000;2023-08-17T00:16:31;23.50;99.90
3262;DHT22;1643;47.746;9.000;2023-08-17T00:18:56;23.50;99.90
3262;DHT22;1643;47.746;9.000;2023-08-17T00:21:22;23.50;99.90
3262;DHT22;1643;47.746;9.000;2023-08-17T00:23:48;23.50;99.90
3262;DHT22;1643;47.746;9.000;2023-08-17T00:26:14;23.50;99.90
3262;DHT22;1643;47.746;9.000;2023-08-17T00:28:40;23.50;99.90
3262;DHT22;1643;47.746;9.000;2023-08-17T00:31:06;23.50;99.90
3262;DHT22;1643;47.746;9.000;2023-08-17T00:33:31;23.50;99.90
3262;DHT22;1643;47.746;9.000;2023-08-17T00:35:57;23.50;99.90
3262;DHT22;1643;47.746;9.000;2023-08-17T00:38:23;23.50;99.90
3262;DHT22;1643;47.746;9.000;2023-08-17T00:40:48;23.40;99.90
3262;DHT22;1643;47.746;9.000;2023-08-17T00:43:14;23.30;99.90
3262;DHT22;1643;47.746;9.000;2023-08-17T00:45:40;23.20;99.90
3262;DHT22;1643;47.746;9.000;2023-08-17T00:48:08;23.20;99.90
3262;DHT22;1643;47.746;9.000;2023-08-17T00:50:35;23.10;99.90
3262;DHT22;1643;47.746;9.000;2023-08-17T00:53:01;23.10;99.90
3262;DHT22;1643;47.746;9.000;2023-08-17T00:55:28;23.10;99.90
3262;DHT22;1643;47.746;9.000;2023-08-17T00:57:56;23.10;99.90
3262;DHT22;1643;47.746;9.000;2023-08-17T01:00:22;23.00;99.90
3262;DHT22;1643;47.746;9.000;2023-08-17T01:02:49;23.00;99.90
3262;DHT22;1643;47.746;9.000;2023-08-17T01:05:15;23.00;99.90
3262;DHT22;1643;47.746;9.000;2023-08-17T01:07:40;23.10;99.90
3262;DHT22;1643;47.746;9.000;2023-08-17T01:10:06;23.10;99.90
3262;DHT22;1643;47.746;9.000;2023-08-17T01:12:57;23.10;99.90
3262;DHT22;1643;47.746;9.000;2023-08-17T01:15:37;23.00;99.90
3262;DHT22;1643;47.746;9.000;2023-08-17T01:18:20;23.00;99.90
3262;DHT22;1643;47.746;9.000;2023-08-17T01:20:50;23.00;99.90
3262;DHT22;1643;47.746;9.000;2023-08-17T01:23:16;23.00;99.90
3262;DHT22;1643;47.746;9.000;2023-08-17T01:25:41;23.00;99.90
3262;DHT22;1643;47.746;9.000;2023-08-17T01:28:07;23.00;99.90
3262;DHT22;1643;47.746;9.000;2023-08-17T01:31:27;22.90;99.90
3262;DHT22;1643;47.746;9.000;2023-08-17T01:33:49;22.90;99.90
3262;DHT22;1643;47.746;9.000;2023-08-17T01:36:25;22.90;99.90
3262;DHT22;1643;47.746;9.000;2023-08-17T01:38:52;22.90;99.90
3262;DHT22;1643;47.746;9.000;2023-08-17T01:41:21;22.90;99.90
3262;DHT22;1643;47.746;9.000;2023-08-17T01:43:48;22.90;99.90
3262;DHT22;1643;47.746;9.000;2023-08-17T01:46:14;22.80;99.90
3262;DHT22;1643;47.746;9.000;2023-08-17T01:48:46;22.80;99.90
3262;DHT22;1643;47.746;9.000;2023-08-17T01:51:17;22.80;99.90
3262;DHT22;1643;47.746;9.000;2023-08-17T01:53:44;22.70;99.90
3262;DHT22;1643;47.746;9.000;2023-08-17T01:56:10;22.70;99.90
3262;DHT22;1643;47.746;9.000;2023-08-17T01:58:35;22.60;99.90
3262;DHT22;1643;47.746;9.000;2023-08-17T02:01:01;22.50;99.90
3262;DHT22;1643;47.746;9.000;2023-08-17T02:03:26;22.60;99.90
3262;DHT22;1643;47.746;9.000;2023-08-17T02:05:56;22.60;99.90
3262;DHT22;1643;47.746;9.000;2023-08-17T02:08:21;22.60;99.90
3262;DHT22;1643;47.746;9.000;2023-08-17T02:10:47;22.60;99.90
3262;DHT22;1643;47.746;9.000;2023-08-17T02:13:13;22.60;99.90
3262;DHT22;1643;47.746;9.000;2023-08-17T02:15:39;22.60;99.90
3262;DHT22;1643;47.746;9.000;2023-08-17T02:18:05;22.60;99.90
3262;DHT22;1643;47.746;9.000;2023-08-17T02:20:31;22.70;99.90
3262;DHT22;1643;47.746;9.000;2023-08-17T02:22:57;22.60;99.90
3262;DHT22;1643;47.746;9.000;2023-08-17T02:25:22;22.60;99.90
3262;DHT22;1643;47.746;9.000;2023-08-17T02:27:51;22.60;99.90
3262;DHT22;1643;47.746;9.000;2023-08-17T02:30:16;22.60;99.90
3262;DHT22;1643;47.746;9.000;2023-08-17T02:32:42;22.50;99.90
3262;DHT22;1643;47.746;9.000;2023-08-17T02:35:08;22.40;99.90
3262;DHT22;1643;47.746;9.000;2023-08-17T02:37:33;22.40;99.90
3262;DHT22;1643;47.746;9.000;2023-08-17T02:39:59;22.40;99.90
3262;DHT22;1643;47.746;9.000;2023-08-17T02:42:25;22.30;99.90
3262;DHT22;1643;47.746;9.000;2023-08-17T02:44:50;22.40;99.90
3262;DHT22;1643;47.746;9.000;2023-08-17T02:47:16;22.30;99.90
3262;DHT22;1643;47.746;9.000;2023-08-17T02:49:42;22.20;99.90
3262;DHT22;1643;47.746;9.000;2023-08-17T02:52:08;22.30;99.90
3262;DHT22;1643;47.746;9.000;2023-08-17T02:54:33;22.20;99.90
3262;DHT22;1643;47.746;9.000;2023-08-17T02:56:59;22.20;99.90
3262;DHT22;1643;47.746;9.000;2023-08-17T02:59:25;22.20;99.90
3262;DHT22;1643;47.746;9.000;2023-08-17T03:01:51;22.20;99.90
3262;DHT22;1643;47.746;9.000;2023-08-17T03:04:18;22.20;99.90
3262;DHT22;1643;47.746;9.000;2023-08-17T03:06:44;22.20;99.90
3262;DHT22;1643;47.746;9.000;2023-08-17T03:09:09;22.20;99.90
3262;DHT22;1643;47.746;9.000;2023-08-17T03:11:36;22.20;99.90
3262;DHT22;1643;47.746;9.000;2023-08-17T03:14:02;22.10;99.90
3262;DHT22;1643;47.746;9.000;2023-08-17T03:16:28;22.00;99.90
3262;DHT22;1643;47.746;9.000;2023-08-17T03:18:55;22.00;99.90
3262;DHT22;1643;47.746;9.000;2023-08-17T03:21:22;22.00;99.90
3262;DHT22;1643;47.746;9.000;2023-08-17T03:23:48;22.00;99.90
3262;DHT22;1643;47.746;9.000;2023-08-17T03:26:14;22.00;99.90
3262;DHT22;1643;47.746;9.000;2023-08-17T03:28:40;22.00;99.90
3262;DHT22;1643;47.746;9.000;2023-08-17T03:31:06;22.10;99.90
3262;DHT22;1643;47.746;9.000;2023-08-17T03:33:34;22.00;99.90
3262;DHT22;1643;47.746;9.000;2023-08-17T03:36:00;22.00;99.90
3262;DHT22;1643;47.746;9.000;2023-08-17T03:38:26;22.00;99.90
3262;DHT22;1643;47.746;9.000;2023-08-17T03:40:52;22.00;99.90
3262;DHT22;1643;47.746;9.000;2023-08-17T03:43:17;22.00;99.90
3262;DHT22;1643;47.746;9.000;2023-08-17T03:45:43;22.00;99.90
3262;DHT22;1643;47.746;9.000;2023-08-17T03:48:09;21.90;99.90
3262;DHT22;1643;47.746;9.000;2023-08-17T03:50:35;21.90;99.90
3262;DHT22;1643;47.746;9.000;2023-08-17T03:53:01;21.90;99.90
3262;DHT22;1643;47.746;9.000;2023-08-17T03:55:26;21.80;99.90
3262;DHT22;1643;47.746;9.000;2023-08-17T03:57:52;21.80;99.90
3262;DHT22;1643;47.746;9.000;2023-08-17T04:00:18;21.80;99.90
3262;DHT22;1643;47.746;9.000;2023-08-17T04:02:44;21.80;99.90
3262;DHT22;1643;47.746;9.000;2023-08-17T04:05:09;21.80;99.90
3262;DHT22;1643;47.746;9.000;2023-08-17T04:07:36;21.80;99.90
3262;DHT22;1643;47.746;9.000;2023-08-17T04:10:03;21.80;99.90
3262;DHT22;1643;47.746;9.000;2023-08-17T04:12:30;21.90;99.90
3262;DHT22;1643;47.746;9.000;2023-08-17T04:14:56;21.80;99.90
3262;DHT22;1643;47.746;9.000;2023-08-17T04:17:21;21.80;99.90
3262;DHT22;1643;47.746;9.000;2023-08-17T04:19:47;21.90;99.90
3262;DHT22;1643;47.746;9.000;2023-08-17T04:22:13;21.90;99.90
3262;DHT22;1643;47.746;9.000;2023-08-17T04:24:38;21.80;99.90
3262;DHT22;1643;47.746;9.000;2023-08-17T04:27:04;21.80;99.90
3262;DHT22;1643;47.746;9.000;2023-08-17T04:29:31;21.70;99.90
3262;DHT22;1643;47.746;9.000;2023-08-17T04:31:57;21.70;99.90
3262;DHT22;1643;47.746;9.000;2023-08-17T04:34:23;21.80;99.90
3262;DHT22;1643;47.746;9.000;2023-08-17T04:36:49;21.80;99.90
3262;DHT22;1643;47.746;9.000;2023-08-17T04:39:15;21.80;99.90
3262;DHT22;1643;47.746;9.000;2023-08-17T04:41:40;21.80;99.90
3262;DHT22;1643;47.746;9.000;2023-08-17T04:44:06;21.80;99.90
3262;DHT22;1643;47.746;9.000;2023-08-17T04:46:32;21.80;99.90
3262;DHT22;1643;47.746;9.000;2023-08-17T04:48:57;21.80;99.90
3262;DHT22;1643;47.746;9.000;2023-08-17T04:51:23;21.80;99.90
3262;DHT22;1643;47.746;9.000;2023-08-17T04:53:49;21.70;99.90
3262;DHT22;1643;47.746;9.000;2023-08-17T04:56:14;21.70;99.90
3262;DHT22;1643;47.746;9.000;2023-08-17T04:58:40;21.70;99.90
3262;DHT22;1643;47.746;9.000;2023-08-17T05:01:06;21.80;99.90
3262;DHT22;1643;47.746;9.000;2023-08-17T05:03:31;21.80;99.90
3262;DHT22;1643;47.746;9.000;2023-08-17T05:05:57;21.80;99.90
3262;DHT22;1643;47.746;9.000;2023-08-17T05:08:22;21.80;99.90
3262;DHT22;1643;47.746;9.000;2023-08-17T05:10:48;21.90;99.90
3262;DHT22;1643;47.746;9.000;2023-08-17T05:13:14;21.90;99.90
3262;DHT22;1643;47.746;9.000;2023-08-17T05:15:40;21.90;99.90
3262;DHT22;1643;47.746;9.000;2023-08-17T05:18:05;21.90;99.90
3262;DHT22;1643;47.746;9.000;2023-08-17T05:20:31;21.80;99.90
3262;DHT22;1643;47.746;9.000;2023-08-17T05:22:57;21.70;99.90
3262;DHT22;1643;47.746;9.000;2023-08-17T05:25:22;21.60;99.90
3262;DHT22;1643;47.746;9.000;2023-08-17T05:27:48;21.60;99.90
3262;DHT22;1643;47.746;9.000;2023-08-17T05:30:17;21.60;99.90
3262;DHT22;1643;47.746;9.000;2023-08-17T05:32:43;21.70;99.90
3262;DHT22;1643;47.746;9.000;2023-08-17T05:35:09;21.90;99.90
3262;DHT22;1643;47.746;9.000;2023-08-17T05:37:34;22.00;99.90
3262;DHT22;1643;47.746;9.000;2023-08-17T05:40:00;22.10;99.90
3262;DHT22;1643;47.746;9.000;2023-08-17T05:42:25;22.20;99.90
3262;DHT22;1643;47.746;9.000;2023-08-17T05:44:51;22.30;99.90
3262;DHT22;1643;47.746;9.000;2023-08-17T05:47:17;22.40;99.90
3262;DHT22;1643;47.746;9.000;2023-08-17T05:49:44;22.40;99.90
3262;DHT22;1643;47.746;9.000;2023-08-17T05:52:10;22.40;99.90
3262;DHT22;1643;47.746;9.000;2023-08-17T05:54:36;22.50;99.90
3262;DHT22;1643;47.746;9.000;2023-08-17T05:57:02;22.50;99.90
3262;DHT22;1643;47.746;9.000;2023-08-17T05:59:28;22.50;99.90
3262;DHT22;1643;47.746;9.000;2023-08-17T06:01:54;22.50;99.90
3262;DHT22;1643;47.746;9.000;2023-08-17T06:04:19;22.40;99.90
3262;DHT22;1643;47.746;9.000;2023-08-17T06:06:46;22.40;99.90
3262;DHT22;1643;47.746;9.000;2023-08-17T06:09:12;22.50;99.90
3262;DHT22;1643;47.746;9.000;2023-08-17T06:11:37;22.50;99.90
3262;DHT22;1643;47.746;9.000;2023-08-17T06:14:04;22.60;99.90
3262;DHT22;1643;47.746;9.000;2023-08-17T06:16:29;22.70;99.90
3262;DHT22;1643;47.746;9.000;2023-08-17T06:18:55;22.80;99.90
3262;DHT22;1643;47.746;9.000;2023-08-17T06:21:21;22.80;99.90
3262;DHT22;1643;47.746;9.000;2023-08-17T06:23:46;22.80;99.90
3262;DHT22;1643;47.746;9.000;2023-08-17T06:26:12;22.80;99.90
3262;DHT22;1643;47.746;9.000;2023-08-17T06:28:38;23.00;99.90
3262;DHT22;1643;47.746;9.000;2023-08-17T06:31:03;23.00;99.90
3262;DHT22;1643;47.746;9.000;2023-08-17T06:33:29;23.10;99.90
3262;DHT22;1643;47.746;9.000;2023-08-17T06:35:55;23.10;99.90
3262;DHT22;1643;47.746;9.000;2023-08-17T06:38:20;23.20;99.90
3262;DHT22;1643;47.746;9.000;2023-08-17T06:40:46;23.30;99.90
3262;DHT22;1643;47.746;9.000;2023-08-17T06:43:12;23.20;99.90
3262;DHT22;1643;47.746;9.000;2023-08-17T06:45:38;23.10;99.90
3262;DHT22;1643;47.746;9.000;2023-08-17T06:48:03;23.10;99.90
3262;DHT22;1643;47.746;9.000;2023-08-17T06:50:29;23.10;99.90
3262;DHT22;1643;47.746;9.000;2023-08-17T06:52:55;23.10;99.90
3262;DHT22;1643;47.746;9.000;2023-08-17T06:55:20;23.20;99.90
3262;DHT22;1643;47.746;9.000;2023-08-17T06:57:47;23.30;99.90
3262;DHT22;1643;47.746;9.000;2023-08-17T07:00:15;23.30;99.90
3262;DHT22;1643;47.746;9.000;2023-08-17T07:02:41;23.40;99.90
3262;DHT22;1643;47.746;9.000;2023-08-17T07:05:06;23.50;99.90
3262;DHT22;1643;47.746;9.000;2023-08-17T07:07:33;23.50;99.90
3262;DHT22;1643;47.746;9.000;2023-08-17T07:09:59;23.60;99.90
3262;DHT22;1643;47.746;9.000;2023-08-17T07:12:25;23.60;99.90
3262;DHT22;1643;47.746;9.000;2023-08-17T07:14:50;23.50;99.90
3262;DHT22;1643;47.746;9.000;2023-08-17T07:17:16;23.50;99.90
3262;DHT22;1643;47.746;9.000;2023-08-17T07:19:42;23.50;99.90
3262;DHT22;1643;47.746;9.000;2023-08-17T07:22:08;23.50;99.90
3262;DHT22;1643;47.746;9.000;2023-08-17T07:24:33;23.50;99.90
3262;DHT22;1643;47.746;9.000;2023-08-17T07:26:59;23.50;99.90
3262;DHT22;1643;47.746;9.000;2023-08-17T07:29:25;23.60;99.90
3262;DHT22;1643;47.746;9.000;2023-08-17T07:31:50;23.70;99.90
3262;DHT22;1643;47.746;9.000;2023-08-17T07:34:16;23.70;99.90
3262;DHT22;1643;47.746;9.000;2023-08-17T07:36:42;23.80;99.90
3262;DHT22;1643;47.746;9.000;2023-08-17T07:39:07;23.90;99.90
3262;DHT22;1643;47.746;9.000;2023-08-17T07:41:33;24.00;99.90
3262;DHT22;1643;47.746;9.000;2023-08-17T07:43:59;24.10;99.90
3262;DHT22;1643;47.746;9.000;2023-08-17T07:46:24;24.00;99.90
3262;DHT22;1643;47.746;9.000;2023-08-17T07:48:50;24.10;99.90
3262;DHT22;1643;47.746;9.000;2023-08-17T07:51:16;24.10;99.90
3262;DHT22;1643;47.746;9.000;2023-08-17T07:53:41;24.20;99.90
3262;DHT22;1643;47.746;9.000;2023-08-17T07:56:07;24.30;99.90
3262;DHT22;1643;47.746;9.000;2023-08-17T07:58:33;24.40;99.90
3262;DHT22;1643;47.746;9.000;2023-08-17T08:00:58;24.50;99.90
3262;DHT22;1643;47.746;9.000;2023-08-17T08:03:24;24.40;99.90
3262;DHT22;1643;47.746;9.000;2023-08-17T08:05:50;24.50;99.90
3262;DHT22;1643;47.746;9.000;2023-08-17T08:08:15;24.60;99.90
3262;DHT22;1643;47.746;9.000;2023-08-17T08:10:43;24.60;99.90
3262;DHT22;1643;47.746;9.000;2023-08-17T08:13:09;24.60;99.90
3262;DHT22;1643;47.746;9.000;2023-08-17T08:15:35;24.50;99.90
3262;DHT22;1643;47.746;9.000;2023-08-17T08:18:00;24.60;99.90
3262;DHT22;1643;47.746;9.000;2023-08-17T08:20:26;24.60;99.90
3262;DHT22;1643;47.746;9.000;2023-08-17T08:22:52;24.70;99.90
3262;DHT22;1643;47.746;9.000;2023-08-17T08:25:17;24.70;99.90
3262;DHT22;1643;47.746;9.000;2023-08-17T08:27:43;24.70;99.90
3262;DHT22;1643;47.746;9.000;2023-08-17T08:30:09;24.80;99.90
3262;DHT22;1643;47.746;9.000;2023-08-17T08:32:34;24.90;99.90
3262;DHT22;1643;47.746;9.000;2023-08-17T08:35:01;25.00;99.90
3262;DHT22;1643;47.746;9.000;2023-08-17T08:37:27;24.90;99.90
3262;DHT22;1643;47.746;9.000;2023-08-17T08:39:54;25.00;99.90
3262;DHT22;1643;47.746;9.000;2023-08-17T08:42:21;25.10;99.90
3262;DHT22;1643;47.746;9.000;2023-08-17T08:44:47;25.20;99.90
3262;DHT22;1643;47.746;9.000;2023-08-17T08:47:13;25.30;99.90
3262;DHT22;1643;47.746;9.000;2023-08-17T08:49:40;25.30;99.90
3262;DHT22;1643;47.746;9.000;2023-08-17T08:52:14;25.30;99.90
3262;DHT22;1643;47.746;9.000;2023-08-17T08:54:43;25.30;99.90
3262;DHT22;1643;47.746;9.000;2023-08-17T08:57:13;25.20;99.90
3262;DHT22;1643;47.746;9.000;2023-08-17T08:59:42;25.20;99.90
3262;DHT22;1643;47.746;9.000;2023-08-17T09:02:15;25.20;99.90
3262;DHT22;1643;47.746;9.000;2023-08-17T09:04:44;25.20;99.90
3262;DHT22;1643;47.746;9.000;2023-08-17T09:07:13;25.30;99.90
3262;DHT22;1643;47.746;9.000;2023-08-17T09:09:44;25.30;99.90
3262;DHT22;1643;47.746;9.000;2023-08-17T09:12:10;25.50;99.90
3262;DHT22;1643;47.746;9.000;2023-08-17T09:14:36;25.60;99.90
3262;DHT22;1643;47.746;9.000;2023-08-17T09:17:03;25.60;99.90
3262;DHT22;1643;47.746;9.000;2023-08-17T09:19:31;25.60;99.90
3262;DHT22;1643;47.746;9.000;2023-08-17T09:21:58;25.80;99.90
3262;DHT22;1643;47.746;9.000;2023-08-17T09:24:23;25.90;99.90
3262;DHT22;1643;47.746;9.000;2023-08-17T09:26:49;25.90;99.90
3262;DHT22;1643;47.746;9.000;2023-08-17T09:29:19;25.90;99.90
3262;DHT22;1643;47.746;9.000;2023-08-17T09:31:49;26.00;99.90
3262;DHT22;1643;47.746;9.000;2023-08-17T09:34:14;25.90;99.90
3262;DHT22;1643;47.746;9.000;2023-08-17T09:36:41;26.00;99.90
3262;DHT22;1643;47.746;9.000;2023-08-17T09:39:07;26.00;99.90
3262;DHT22;1643;47.746;9.000;2023-08-17T09:41:40;25.90;99.90
3262;DHT22;1643;47.746;9.000;2023-08-17T09:44:07;25.90;99.90
3262;DHT22;1643;47.746;9.000;2023-08-17T09:46:32;25.80;99.90
3262;DHT22;1643;47.746;9.000;2023-08-17T09:48:58;25.90;99.90
3262;DHT22;1643;47.746;9.000;2023-08-17T09:51:24;25.90;99.90
3262;DHT22;1643;47.746;9.000;2023-08-17T09:53:53;25.90;99.90
3262;DHT22;1643;47.746;9.000;2023-08-17T09:56:22;25.90;99.90
3262;DHT22;1643;47.746;9.000;2023-08-17T09:58:49;26.00;99.90
3262;DHT22;1643;47.746;9.000;2023-08-17T10:01:15;26.00;99.90
3262;DHT22;1643;47.746;9.000;2023-08-17T10:03:44;26.00;99.90
3262;DHT22;1643;47.746;9.000;2023-08-17T10:06:13;26.10;99.90
3262;DHT22;1643;47.746;9.000;2023-08-17T10:08:47;26.10;99.90
3262;DHT22;1643;47.746;9.000;2023-08-17T10:11:19;26.10;99.90
3262;DHT22;1643;47.746;9.000;2023-08-17T10:13:57;26.20;99.90
3262;DHT22;1643;47.746;9.000;2023-08-17T10:16:28;26.30;99.90
3262;DHT22;1643;47.746;9.000;2023-08-17T10:19:05;26.30;99.90
3262;DHT22;1643;47.746;9.000;2023-08-17T10:21:37;26.40;99.90
3262;DHT22;1643;47.746;9.000;2023-08-17T10:24:06;26.60;99.90
3262;DHT22;1643;47.746;9.000;2023-08-17T10:26:33;26.70;99.90
3262;DHT22;1643;47.746;9.000;2023-08-17T10:28:59;26.80;99.90
3262;DHT22;1643;47.746;9.000;2023-08-17T10:31:27;26.80;99.90
3262;DHT22;1643;47.746;9.000;2023-08-17T10:33:53;26.80;99.90
3262;DHT22;1643;47.746;9.000;2023-08-17T10:36:19;26.90;99.90
3262;DHT22;1643;47.746;9.000;2023-08-17T10:38:46;27.00;99.90
3262;DHT22;1643;47.746;9.000;2023-08-17T10:41:13;27.00;99.90
3262;DHT22;1643;47.746;9.000;2023-08-17T10:43:59;27.00;99.90
3262;DHT22;1643;47.746;9.000;2023-08-17T10:46:38;27.10;99.90
3262;DHT22;1643;47.746;9.000;2023-08-17T10:49:24;27.20;99.90
3262;DHT22;1643;47.746;9.000;2023-08-17T10:52:08;27.40;99.90
3262;DHT22;1643;47.746;9.000;2023-08-17T10:54:38;27.40;99.90
3262;DHT22;1643;47.746;9.000;2023-08-17T10:57:33;27.50;99.90
3262;DHT22;1643;47.746;9.000;2023-08-17T11:02:39;27.70;99.90
3262;DHT22;1643;47.746;9.000;2023-08-17T11:05:05;27.80;99.90
3262;DHT22;1643;47.746;9.000;2023-08-17T11:07:43;27.80;99.90
3262;DHT22;1643;47.746;9.000;2023-08-17T11:10:26;27.70;99.90
3262;DHT22;1643;47.746;9.000;2023-08-17T11:12:53;27.80;99.90
3262;DHT22;1643;47.746;9.000;2023-08-17T11:15:25;27.70;99.90
3262;DHT22;1643;47.746;9.000;2023-08-17T11:17:52;27.70;99.90
3262;DHT22;1643;47.746;9.000;2023-08-17T11:20:18;27.80;99.90
3262;DHT22;1643;47.746;9.000;2023-08-17T11:22:46;27.90;99.90
3262;DHT22;1643;47.746;9.000;2023-08-17T11:25:11;28.00;99.90
3262;DHT22;1643;47.746;9.000;2023-08-17T11:27:38;28.00;99.90
3262;DHT22;1643;47.746;9.000;2023-08-17T11:30:05;28.10;99.90
3262;DHT22;1643;47.746;9.000;2023-08-17T11:32:30;28.20;99.90
3262;DHT22;1643;47.746;9.000;2023-08-17T11:34:56;28.30;99.90
3262;DHT22;1643;47.746;9.000;2023-08-17T11:37:22;28.30;99.90
3262;DHT22;1643;47.746;9.000;2023-08-17T11:39:47;28.40;99.90
3262;DHT22;1643;47.746;9.000;2023-08-17T11:42:13;28.40;99.90
3262;DHT22;1643;47.746;9.000;2023-08-17T11:44:39;28.40;99.90
3262;DHT22;1643;47.746;9.000;2023-08-17T11:47:05;28.50;99.90
3262;DHT22;1643;47.746;9.000;2023-08-17T11:49:32;28.50;99.90
3262;DHT22;1643;47.746;9.000;2023-08-17T11:51:57;28.70;99.90
3262;DHT22;1643;47.746;9.000;2023-08-17T11:54:23;28.80;99.90
3262;DHT22;1643;47.746;9.000;2023-08-17T11:56:48;28.80;99.90
3262;DHT22;1643;47.746;9.000;2023-08-17T11:59:14;28.90;99.90
3262;DHT22;1643;47.746;9.000;2023-08-17T12:01:43;28.90;99.90
3262;DHT22;1643;47.746;9.000;2023-08-17T12:04:09;28.90;99.90
3262;DHT22;1643;47.746;9.000;2023-08-17T12:06:41;28.90;99.90
3262;DHT22;1643;47.746;9.000;2023-08-17T12:09:08;29.20;99.90
3262;DHT22;1643;47.746;9.000;2023-08-17T12:11:33;29.20;99.90
3262;DHT22;1643;47.746;9.000;2023-08-17T12:13:59;29.30;99.90
3262;DHT22;1643;47.746;9.000;2023-08-17T12:16:25;29.40;99.90
3262;DHT22;1643;47.746;9.000;2023-08-17T12:18:51;29.50;99.90
3262;DHT22;1643;47.746;9.000;2023-08-17T12:21:20;29.50;99.90
3262;DHT22;1643;47.746;9.000;2023-08-17T12:23:47;29.50;99.90
3262;DHT22;1643;47.746;9.000;2023-08-17T12:26:20;29.60;99.90
3262;DHT22;1643;47.746;9.000;2023-08-17T12:28:46;29.80;99.90
3262;DHT22;1643;47.746;9.000;2023-08-17T12:31:11;29.90;99.90
3262;DHT22;1643;47.746;9.000;2023-08-17T12:33:37;29.90;99.90
3262;DHT22;1643;47.746;9.000;2023-08-17T12:36:02;29.90;99.90
3262;DHT22;1643;47.746;9.000;2023-08-17T12:38:29;29.90;99.90
3262;DHT22;1643;47.746;9.000;2023-08-17T12:40:55;30.00;99.90
3262;DHT22;1643;47.746;9.000;2023-08-17T12:43:21;30.20;99.90
3262;DHT22;1643;47.746;9.000;2023-08-17T12:45:46;30.50;99.90
3262;DHT22;1643;47.746;9.000;2023-08-17T12:48:12;30.50;98.70
3262;DHT22;1643;47.746;9.000;2023-08-17T12:50:38;30.30;97.60
3262;DHT22;1643;47.746;9.000;2023-08-17T12:53:03;30.20;96.80
3262;DHT22;1643;47.746;9.000;2023-08-17T12:55:29;30.20;96.30
3262;DHT22;1643;47.746;9.000;2023-08-17T12:57:55;30.30;95.80
3262;DHT22;1643;47.746;9.000;2023-08-17T13:00:21;30.10;95.40
3262;DHT22;1643;47.746;9.000;2023-08-17T13:02:46;29.80;94.50
3262;DHT22;1643;47.746;9.000;2023-08-17T13:05:14;29.60;94.00
3262;DHT22;1643;47.746;9.000;2023-08-17T13:07:40;29.30;93.70
3262;DHT22;1643;47.746;9.000;2023-08-17T13:10:06;29.20;93.90
3262;DHT22;1643;47.746;9.000;2023-08-17T13:12:31;29.20;93.80
3262;DHT22;1643;47.746;9.000;2023-08-17T13:14:57;29.10;93.90
3262;DHT22;1643;47.746;9.000;2023-08-17T13:17:23;29.00;93.60
3262;DHT22;1643;47.746;9.000;2023-08-17T13:19:48;29.00;93.60
3262;DHT22;1643;47.746;9.000;2023-08-17T13:22:14;28.90;93.40
3262;DHT22;1643;47.746;9.000;2023-08-17T13:24:39;29.00;93.30
3262;DHT22;1643;47.746;9.000;2023-08-17T13:27:05;28.90;93.20
3262;DHT22;1643;47.746;9.000;2023-08-17T13:29:31;29.00;93.10
3262;DHT22;1643;47.746;9.000;2023-08-17T13:31:56;29.00;93.30
3262;DHT22;1643;47.746;9.000;2023-08-17T13:34:22;29.00;94.10
3262;DHT22;1643;47.746;9.000;2023-08-17T13:36:47;29.10;94.50
3262;DHT22;1643;47.746;9.000;2023-08-17T13:39:13;29.10;94.70
3262;DHT22;1643;47.746;9.000;2023-08-17T13:41:39;29.20;94.90
3262;DHT22;1643;47.746;9.000;2023-08-17T13:44:06;29.20;94.90
3262;DHT22;1643;47.746;9.000;2023-08-17T13:46:31;29.20;94.20
3262;DHT22;1643;47.746;9.000;2023-08-17T13:48:57;29.10;94.20
3262;DHT22;1643;47.746;9.000;2023-08-17T13:51:23;29.10;93.90
3262;DHT22;1643;47.746;9.000;2023-08-17T13:53:48;29.10;93.80
3262;DHT22;1643;47.746;9.000;2023-08-17T13:56:14;29.10;93.30
3262;DHT22;1643;47.746;9.000;2023-08-17T13:58:40;29.10;93.20
3262;DHT22;1643;47.746;9.000;2023-08-17T14:01:05;29.20;93.70
3262;DHT22;1643;47.746;9.000;2023-08-17T14:03:31;29.30;94.10
3262;DHT22;1643;47.746;9.000;2023-08-17T14:05:56;29.20;94.40
3262;DHT22;1643;47.746;9.000;2023-08-17T14:08:22;29.30;94.60
3262;DHT22;1643;47.746;9.000;2023-08-17T14:10:48;29.20;95.00
3262;DHT22;1643;47.746;9.000;2023-08-17T14:13:13;29.20;95.50
3262;DHT22;1643;47.746;9.000;2023-08-17T14:15:39;29.20;95.80
3262;DHT22;1643;47.746;9.000;2023-08-17T14:18:05;29.10;96.00
3262;DHT22;1643;47.746;9.000;2023-08-17T14:20:30;29.10;95.90
3262;DHT22;1643;47.746;9.000;2023-08-17T14:22:56;29.00;95.70
3262;DHT22;1643;47.746;9.000;2023-08-17T14:25:21;29.10;95.70
3262;DHT22;1643;47.746;9.000;2023-08-17T14:27:47;29.10;95.60
3262;DHT22;1643;47.746;9.000;2023-08-17T14:30:13;29.10;95.60
3262;DHT22;1643;47.746;9.000;2023-08-17T14:32:39;29.10;95.40
3262;DHT22;1643;47.746;9.000;2023-08-17T14:35:04;29.10;95.40
3262;DHT22;1643;47.746;9.000;2023-08-17T14:37:30;29.10;95.60
3262;DHT22;1643;47.746;9.000;2023-08-17T14:39:56;29.10;95.60
3262;DHT22;1643;47.746;9.000;2023-08-17T14:42:21;29.00;95.80
3262;DHT22;1643;47.746;9.000;2023-08-17T14:44:48;29.00;95.70
3262;DHT22;1643;47.746;9.000;2023-08-17T14:47:14;28.90;95.90
3262;DHT22;1643;47.746;9.000;2023-08-17T14:49:39;29.00;96.10
3262;DHT22;1643;47.746;9.000;2023-08-17T14:52:05;29.00;96.40
3262;DHT22;1643;47.746;9.000;2023-08-17T14:54:31;29.00;96.50
3262;DHT22;1643;47.746;9.000;2023-08-17T14:56:56;29.00;95.80
3262;DHT22;1643;47.746;9.000;2023-08-17T14:59:22;28.90;95.50
3262;DHT22;1643;47.746;9.000;2023-08-17T15:01:47;28.90;95.00
3262;DHT22;1643;47.746;9.000;2023-08-17T15:04:14;28.90;94.90
3262;DHT22;1643;47.746;9.000;2023-08-17T15:06:40;29.00;94.90
3262;DHT22;1643;47.746;9.000;2023-08-17T15:09:06;29.00;94.90
3262;DHT22;1643;47.746;9.000;2023-08-17T15:11:31;29.10;95.00
3262;DHT22;1643;47.746;9.000;2023-08-17T15:13:57;29.20;95.10
3262;DHT22;1643;47.746;9.000;2023-08-17T15:16:22;29.20;94.90
3262;DHT22;1643;47.746;9.000;2023-08-17T15:18:52;29.20;94.90
3262;DHT22;1643;47.746;9.000;2023-08-17T15:21:18;29.10;94.70
3262;DHT22;1643;47.746;9.000;2023-08-17T15:23:44;29.00;95.00
3262;DHT22;1643;47.746;9.000;2023-08-17T15:26:09;28.90;95.40
3262;DHT22;1643;47.746;9.000;2023-08-17T15:28:36;28.80;95.70
3262;DHT22;1643;47.746;9.000;2023-08-17T15:31:03;28.70;96.00
3262;DHT22;1643;47.746;9.000;2023-08-17T15:33:31;28.50;96.40
3262;DHT22;1643;47.746;9.000;2023-08-17T15:35:57;28.40;96.80
3262;DHT22;1643;47.746;9.000;2023-08-17T15:38:24;28.30;97.20
3262;DHT22;1643;47.746;9.000;2023-08-17T15:40:50;28.30;97.50
3262;DHT22;1643;47.746;9.000;2023-08-17T15:43:16;28.20;97.70
3262;DHT22;1643;47.746;9.000;2023-08-17T15:45:42;28.20;97.70
3262;DHT22;1643;47.746;9.000;2023-08-17T15:48:08;28.10;97.80
3262;DHT22;1643;47.746;9.000;2023-08-17T15:50:33;28.10;98.00
3262;DHT22;1643;47.746;9.000;2023-08-17T15:52:59;28.00;98.00
3262;DHT22;1643;47.746;9.000;2023-08-17T15:55:24;28.10;97.90
3262;DHT22;1643;47.746;9.000;2023-08-17T15:57:50;28.10;97.90
3262;DHT22;1643;47.746;9.000;2023-08-17T16:00:16;28.00;98.00
3262;DHT22;1643;47.746;9.000;2023-08-17T16:02:41;28.00;98.10